Time;durP1;ratioP1;P1;durP2;ratioP2;P2;SDS_P1;SDS_P2;PMS_P1;PMS_P2;Temp;Humidity;BMP_temperature;BMP_pressure;BME280_temperature;BME280_humidity;BME280_pressure;Samples;Min_cycle;Max_cycle;Signal;HPM_P1;HPM_P2
2022/06/14 00:02:33;;;;;;;7.32;6.57;;;29.10;1.00;;;;;;5066127;28;20036;-50
2022/06/14 00:04:58;;;;;;;8.27;6.18;;;29.00;1.00;;;;;;5075697;28;20056;-45
2022/06/14 00:07:24;;;;;;;8.40;7.60;;;29.10;1.00;;;;;;5086053;28;20497;-45
2022/06/14 00:09:50;;;;;;;7.43;6.70;;;29.00;1.00;;;;;;5077856;28;20021;-46
2022/06/14 00:12:16;;;;;;;8.07;7.28;;;29.10;1.00;;;;;;5074501;28;20086;-50
2022/06/14 00:14:41;;;;;;;10.27;8.18;;;29.20;1.00;;;;;;5084363;28;20048;-45
2022/06/14 00:17:08;;;;;;;8.93;8.07;;;29.00;1.00;;;;;;5080640;28;20064;-47
2022/06/14 00:19:34;;;;;;;9.00;8.20;;;29.00;1.00;;;;;;5088379;28;20093;-53
2022/06/14 00:22:02;;;;;;;7.75;6.88;;;29.10;1.00;;;;;;5082542;28;20482;-50
2022/06/14 00:24:28;;;;;;;8.07;7.28;;;29.00;1.00;;;;;;5076598;28;20024;-47
2022/06/14 00:26:53;;;;;;;7.53;6.93;;;29.00;1.00;;;;;;5080100;28;20028;-49
2022/06/14 00:29:19;;;;;;;9.95;7.60;;;28.80;1.00;;;;;;5079973;28;20029;-48
2022/06/14 00:31:45;;;;;;;8.57;7.63;;;28.90;1.00;;;;;;5080227;28;20020;-48
2022/06/14 00:34:11;;;;;;;8.43;7.63;;;28.80;1.00;;;;;;5077077;28;20493;-47
2022/06/14 00:36:36;;;;;;;7.65;7.05;;;28.60;1.00;;;;;;5093490;28;20039;-51
2022/06/14 00:39:06;;;;;;;7.60;6.80;;;28.70;1.00;;;;;;5096337;28;20047;-49
2022/06/14 00:41:34;;;;;;;8.27;7.68;;;28.80;1.00;;;;;;5079825;28;20522;-48
2022/06/14 00:44:00;;;;;;;8.75;7.95;;;28.50;1.00;;;;;;5096875;28;20024;-47
2022/06/14 00:46:40;;;;;;;8.18;6.63;;;28.40;1.00;;;;;;5079262;28;20055;-47
2022/06/14 00:49:17;;;;;;;7.40;6.80;;;28.50;1.00;;;;;;5092145;28;20405;-49
2022/06/14 00:51:51;;;;;;;7.78;6.95;;;28.50;1.00;;;;;;5095431;28;20031;-46
2022/06/14 00:54:23;;;;;;;6.75;6.18;;;28.40;1.00;;;;;;5094278;28;20055;-46
2022/06/14 00:57:26;;;;;;;6.88;6.28;;;28.50;1.00;;;;;;5088072;28;20056;-47
2022/06/14 01:00:01;;;;;;;8.35;6.78;;;28.60;1.00;;;;;;5043667;28;20048;-44
2022/06/14 01:02:31;;;;;;;7.32;6.60;;;28.30;1.00;;;;;;5084607;28;20043;-48
2022/06/14 01:05:01;;;;;;;8.30;6.60;;;28.20;1.00;;;;;;5094409;28;20425;-45
2022/06/14 01:07:31;;;;;;;6.97;6.38;;;28.30;1.00;;;;;;5094417;28;20031;-44
2022/06/14 01:10:20;;;;;;;8.60;6.78;;;28.10;1.00;;;;;;5095543;28;20024;-45
2022/06/14 01:12:48;;;;;;;7.18;6.68;;;28.10;1.00;;;;;;5086173;28;20024;-46
2022/06/14 01:15:32;;;;;;;7.57;6.68;;;28.00;1.00;;;;;;5096118;28;20374;-48
2022/06/14 01:18:14;;;;;;;7.72;6.72;;;28.10;1.00;;;;;;5073352;28;20044;-45
2022/06/14 01:20:41;;;;;;;8.38;6.40;;;28.00;1.00;;;;;;5080914;28;20020;-47
2022/06/14 01:23:09;;;;;;;8.63;7.90;;;28.20;1.00;;;;;;5084741;28;20121;-47
2022/06/14 01:25:42;;;;;;;7.80;7.10;;;28.00;1.00;;;;;;5075617;28;20028;-47
2022/06/14 01:28:10;;;;;;;8.27;7.57;;;28.00;1.00;;;;;;5079377;28;20405;-49
2022/06/14 01:30:43;;;;;;;8.27;7.47;;;27.90;1.00;;;;;;5067108;28;20024;-48
2022/06/14 01:33:28;;;;;;;8.15;7.50;;;28.10;1.00;;;;;;5069340;28;20034;-47
2022/06/14 01:36:00;;;;;;;7.82;7.03;;;28.00;1.00;;;;;;5089309;28;20034;-51
2022/06/14 01:38:26;;;;;;;8.90;8.20;;;28.20;1.00;;;;;;5090942;28;20040;-46
2022/06/14 01:41:17;;;;;;;8.43;7.43;;;27.80;1.00;;;;;;5095148;28;20142;-47
2022/06/14 01:44:01;;;;;;;8.80;8.18;;;27.80;1.00;;;;;;5083972;28;20024;-45
2022/06/14 01:46:28;;;;;;;;;;;27.80;1.00;;;;;;5088216;28;20382;-46
2022/06/14 01:52:24;;;;;;;9.68;8.77;;;27.80;1.00;;;;;;5082301;28;20039;-51
2022/06/14 01:55:39;;;;;;;9.23;8.00;;;27.90;1.00;;;;;;5076526;28;20032;-51
2022/06/14 01:58:34;;;;;;;8.35;7.65;;;27.80;1.00;;;;;;5068513;28;20443;-45
2022/06/14 02:01:17;;;;;;;8.05;7.32;;;27.70;1.00;;;;;;5084491;28;20028;-46
2022/06/14 02:20:16;;;;;;;9.82;7.10;;;27.50;1.00;;;;;;5077827;28;20090;-44
2022/06/14 02:23:08;;;;;;;7.20;6.55;;;27.60;1.00;;;;;;5074489;28;20470;-43
2022/06/14 02:25:45;;;;;;;7.82;7.05;;;27.60;1.00;;;;;;5059856;28;20482;-46
2022/06/14 02:28:17;;;;;;;6.68;6.03;;;27.70;1.00;;;;;;5074265;28;20367;-46
2022/06/14 02:30:56;;;;;;;6.80;6.20;;;27.70;1.00;;;;;;5093121;28;20063;-45
2022/06/14 02:33:29;;;;;;;7.35;6.22;;;27.60;1.00;;;;;;5082864;28;20547;-45
2022/06/14 02:35:57;;;;;;;7.03;6.27;;;27.90;1.00;;;;;;5091854;28;20047;-49
2022/06/14 02:38:46;;;;;;;6.85;6.25;;;27.90;1.00;;;;;;5086718;28;20035;-44
2022/06/14 02:41:30;;;;;;;7.20;6.45;;;27.90;1.00;;;;;;5081950;28;20529;-47
2022/06/14 02:44:07;;;;;;;5.88;5.40;;;27.80;1.00;;;;;;5088833;28;20485;-45
2022/06/14 02:46:40;;;;;;;6.88;5.90;;;27.70;1.00;;;;;;5080164;28;20028;-49
2022/06/14 02:49:30;;;;;;;6.32;5.50;;;27.70;1.00;;;;;;5088268;28;20020;-48
2022/06/14 02:52:11;;;;;;;6.30;5.80;;;27.50;1.00;;;;;;5062248;28;20028;-45
2022/06/14 02:54:47;;;;;;;6.50;6.00;;;27.60;1.00;;;;;;5092257;28;20474;-51
2022/06/14 02:58:00;;;;;;;6.10;5.60;;;27.40;1.00;;;;;;5084021;28;20095;-46
2022/06/14 03:00:42;;;;;;;7.05;6.40;;;27.80;1.00;;;;;;5091304;28;20445;-46
2022/06/14 03:03:11;;;;;;;5.75;5.25;;;27.60;1.00;;;;;;5090138;28;20028;-45
2022/06/14 03:05:51;;;;;;;6.30;5.10;;;27.80;1.00;;;;;;5080905;28;20501;-47
2022/06/14 03:08:19;;;;;;;6.30;5.28;;;27.60;1.00;;;;;;5083901;28;20031;-45
2022/06/14 03:11:04;;;;;;;6.20;4.72;;;27.60;1.00;;;;;;5079724;28;20016;-44
2022/06/14 03:13:52;;;;;;;;;;;27.60;1.00;;;;;;5091277;28;20374;-45
2022/06/14 03:17:00;;;;;;;6.07;4.97;;;27.50;1.00;;;;;;5093583;28;19915;-44
2022/06/14 03:19:39;;;;;;;6.38;5.88;;;27.60;1.00;;;;;;5080676;28;20131;-45
2022/06/14 03:35:35;;;;;;;5.95;5.45;;;27.70;1.00;;;;;;5074712;28;20094;-45
2022/06/14 03:38:39;;;;;;;6.45;5.82;;;27.50;1.00;;;;;;5078600;28;20012;-44
2022/06/14 03:41:07;;;;;;;5.53;4.97;;;27.40;1.00;;;;;;5068239;28;20028;-45
2022/06/14 03:43:34;;;;;;;5.93;5.43;;;27.50;1.00;;;;;;5075112;28;20474;-45
2022/06/14 03:46:11;;;;;;;9.30;5.35;;;27.40;1.00;;;;;;5084586;28;20101;-51
2022/06/14 03:48:43;;;;;;;7.07;5.40;;;27.30;1.00;;;;;;5066097;28;20074;-50
2022/06/14 03:51:38;;;;;;;6.07;5.47;;;27.50;1.00;;;;;;5067641;28;20393;-51
2022/06/14 03:54:39;;;;;;;5.75;5.25;;;27.60;1.00;;;;;;5073445;28;20085;-49
2022/06/14 03:57:08;;;;;;;5.68;5.05;;;27.40;1.00;;;;;;5077098;28;20032;-45
2022/06/14 03:59:44;;;;;;;5.90;5.40;;;27.40;1.00;;;;;;5077279;28;20136;-45
2022/06/14 04:02:22;;;;;;;5.75;4.75;;;27.30;1.00;;;;;;5072562;28;20553;-46
2022/06/14 04:04:56;;;;;;;6.43;5.82;;;27.30;1.00;;;;;;5088351;28;20533;-48
2022/06/14 04:07:43;;;;;;;;;;;27.40;1.00;;;;;;5065763;28;20036;-49
2022/06/14 04:10:27;;;;;;;7.82;5.57;;;27.30;1.00;;;;;;5080004;28;19908;-48
2022/06/14 04:13:26;;;;;;;5.85;5.28;;;27.10;1.00;;;;;;5083568;28;20102;-45
2022/06/14 04:16:08;;;;;;;7.35;5.28;;;27.20;1.00;;;;;;5064065;28;20478;-47
2022/06/14 04:18:42;;;;;;;6.07;5.47;;;27.40;1.00;;;;;;5083036;28;20029;-50
2022/06/14 04:21:32;;;;;;;5.80;4.68;;;27.30;1.00;;;;;;5071736;28;20043;-50
2022/06/14 04:24:09;;;;;;;5.70;5.18;;;27.20;1.00;;;;;;5086387;28;20020;-45
2022/06/14 04:27:02;;;;;;;5.50;5.03;;;27.20;1.00;;;;;;5081744;28;20080;-47
2022/06/14 04:29:46;;;;;;;6.28;5.38;;;27.30;1.00;;;;;;5078438;28;20016;-45
2022/06/14 04:32:34;;;;;;;5.95;5.35;;;27.40;1.00;;;;;;5076630;28;20089;-50
2022/06/14 04:35:12;;;;;;;5.45;4.95;;;27.30;1.00;;;;;;5035706;28;20128;-48
2022/06/14 04:37:44;;;;;;;5.55;4.88;;;27.30;1.00;;;;;;5058844;28;20047;-46
2022/06/14 04:40:15;;;;;;;5.32;4.60;;;27.30;1.00;;;;;;5078929;28;20105;-46
2022/06/14 04:42:49;;;;;;;8.10;4.78;;;27.20;1.00;;;;;;5081159;28;20048;-47
2022/06/14 04:45:20;;;;;;;6.05;4.72;;;27.40;1.00;;;;;;5076294;28;20060;-46
2022/06/14 04:48:12;;;;;;;6.05;5.45;;;27.30;1.00;;;;;;5086480;28;20039;-47
2022/06/14 04:50:43;;;;;;;4.82;4.53;;;27.40;1.00;;;;;;5077307;28;20113;-45
2022/06/14 04:53:23;;;;;;;6.07;5.35;;;27.40;1.00;;;;;;5074214;28;20394;-45
2022/06/14 04:56:10;;;;;;;5.88;4.93;;;27.40;1.00;;;;;;5077214;28;20024;-45
2022/06/14 04:58:45;;;;;;;6.68;5.53;;;27.50;1.00;;;;;;5064022;28;20033;-45
2022/06/14 05:01:19;;;;;;;5.50;5.10;;;27.40;1.00;;;;;;5081699;28;20386;-45
2022/06/14 05:03:55;;;;;;;5.22;4.68;;;27.30;1.00;;;;;;5091238;28;20031;-45
2022/06/14 05:06:29;;;;;;;5.57;4.97;;;27.40;1.00;;;;;;5072358;28;20056;-45
2022/06/14 05:09:00;;;;;;;7.90;5.18;;;27.30;1.00;;;;;;5061304;28;20028;-49
2022/06/14 05:11:46;;;;;;;5.60;4.82;;;27.20;1.00;;;;;;5087565;28;20024;-47
2022/06/14 05:14:27;;;;;;;5.55;4.75;;;27.30;1.00;;;;;;5076023;28;20023;-45
2022/06/14 05:16:59;;;;;;;6.97;5.05;;;27.40;1.00;;;;;;5079814;28;20017;-47
2022/06/14 05:19:38;;;;;;;5.75;5.05;;;27.60;1.00;;;;;;5089702;28;20024;-45
2022/06/14 05:22:10;;;;;;;5.15;4.13;;;27.40;1.00;;;;;;5081171;28;20054;-47
2022/06/14 05:24:37;;;;;;;9.25;5.32;;;27.50;1.00;;;;;;5076039;28;20474;-44
2022/06/14 05:27:18;;;;;;;5.25;4.50;;;27.50;1.00;;;;;;5070525;28;20085;-46
2022/06/14 05:29:47;;;;;;;5.60;4.75;;;27.50;1.00;;;;;;5075323;28;20428;-45
2022/06/14 05:32:34;;;;;;;5.00;4.50;;;27.40;1.00;;;;;;5080205;28;20107;-47
2022/06/14 05:35:05;;;;;;;5.15;4.30;;;27.40;1.00;;;;;;5057031;28;20386;-45
2022/06/14 05:38:12;;;;;;;6.90;4.20;;;27.30;1.00;;;;;;5093146;28;20382;-44
2022/06/14 05:40:45;;;;;;;5.40;4.10;;;27.50;1.00;;;;;;5003634;28;20046;-48
2022/06/14 05:43:27;;;;;;;4.70;4.23;;;27.40;1.00;;;;;;5000123;28;20592;-48
2022/06/14 05:46:05;;;;;;;4.32;3.80;;;27.40;1.00;;;;;;5051840;28;20361;-45
2022/06/14 05:48:43;;;;;;;5.65;4.55;;;27.30;1.00;;;;;;5083610;28;20016;-47
2022/06/14 05:51:11;;;;;;;4.78;4.40;;;27.30;1.00;;;;;;5086483;28;20115;-45
2022/06/14 05:54:09;;;;;;;6.47;4.57;;;27.30;1.00;;;;;;5094477;28;20020;-47
2022/06/14 05:56:42;;;;;;;6.18;4.22;;;27.40;1.00;;;;;;5084099;28;20056;-46
2022/06/14 05:59:32;;;;;;;6.07;4.60;;;27.40;1.00;;;;;;5083344;28;20049;-51
2022/06/14 06:02:19;;;;;;;5.22;4.05;;;27.40;1.00;;;;;;5068384;28;20508;-45
2022/06/14 06:05:09;;;;;;;5.65;5.13;;;27.40;1.00;;;;;;5058813;28;20035;-48
2022/06/14 06:07:41;;;;;;;6.93;6.20;;;27.40;1.00;;;;;;5070073;28;20051;-45
2022/06/14 06:10:26;;;;;;;6.88;5.35;;;27.50;1.00;;;;;;5078708;28;20024;-45
2022/06/14 06:13:06;;;;;;;8.70;6.13;;;27.40;1.00;;;;;;5074745;28;20032;-46
2022/06/14 06:15:50;;;;;;;8.13;5.45;;;27.30;1.00;;;;;;5077124;28;20039;-46
2022/06/14 06:18:35;;;;;;;7.30;5.45;;;27.20;1.00;;;;;;5093210;28;20043;-45
2022/06/14 06:21:06;;;;;;;7.45;5.43;;;27.20;1.00;;;;;;5075153;28;20024;-47
2022/06/14 06:23:45;;;;;;;6.40;5.80;;;27.30;1.00;;;;;;5090913;28;20032;-45
2022/06/14 06:26:13;;;;;;;7.65;5.25;;;27.30;1.00;;;;;;5072237;28;20067;-46
2022/06/14 06:28:43;;;;;;;6.47;5.93;;;27.40;1.00;;;;;;5088931;28;20043;-46
2022/06/14 06:31:18;;;;;;;8.40;6.25;;;27.40;1.00;;;;;;5074081;28;20112;-45
2022/06/14 06:33:48;;;;;;;9.07;6.32;;;27.30;1.00;;;;;;5089058;28;20020;-45
2022/06/14 06:36:17;;;;;;;8.93;6.38;;;27.20;1.00;;;;;;5093088;28;20067;-46
2022/06/14 06:39:26;;;;;;;9.63;6.65;;;27.20;1.00;;;;;;5090193;28;20067;-49
2022/06/14 06:42:25;;;;;;;7.28;5.72;;;27.30;1.00;;;;;;5085138;28;20031;-52
2022/06/14 06:44:58;;;;;;;8.38;5.70;;;27.30;1.00;;;;;;5075719;28;20038;-49
2022/06/14 06:47:28;;;;;;;9.15;8.23;;;27.40;1.00;;;;;;5091319;28;20119;-49
2022/06/14 06:50:06;;;;;;;7.85;6.85;;;27.30;1.00;;;;;;5085088;28;20039;-46
2022/06/14 06:52:55;;;;;;;9.95;7.78;;;27.30;1.00;;;;;;5069493;28;20029;-46
2022/06/14 06:55:41;;;;;;;7.70;7.00;;;27.50;1.00;;;;;;5078979;28;20496;-51
2022/06/14 06:58:21;;;;;;;7.68;6.97;;;27.50;1.00;;;;;;5059796;28;20453;-52
2022/06/14 07:07:48;;;;;;;8.40;7.40;;;27.50;1.00;;;;;;5060629;28;20116;-47
2022/06/14 07:10:26;;;;;;;8.65;7.50;;;27.50;1.00;;;;;;5056806;28;20039;-45
2022/06/14 07:12:57;;;;;;;8.50;7.40;;;27.50;1.00;;;;;;5075686;28;20032;-47
2022/06/14 07:15:35;;;;;;;8.48;7.78;;;27.70;1.00;;;;;;5079004;28;20032;-52
2022/06/14 07:18:06;;;;;;;10.38;7.68;;;27.70;1.00;;;;;;5090947;28;20389;-50
2022/06/14 07:20:53;;;;;;;8.60;7.78;;;27.60;1.00;;;;;;5079744;28;20508;-50
2022/06/14 07:23:24;;;;;;;7.72;7.00;;;27.80;1.00;;;;;;5082777;28;20081;-48
2022/06/14 07:26:00;;;;;;;11.80;7.93;;;27.70;1.00;;;;;;5074264;28;20085;-48
2022/06/14 07:28:29;;;;;;;8.15;6.07;;;27.80;1.00;;;;;;5063228;28;20032;-48
2022/06/14 07:31:02;;;;;;;9.25;5.93;;;27.80;1.00;;;;;;5085293;28;20020;-47
2022/06/14 07:33:29;;;;;;;7.38;6.65;;;27.80;1.00;;;;;;5083326;28;20036;-47
2022/06/14 07:36:02;;;;;;;9.85;5.97;;;27.70;1.00;;;;;;5076254;28;20027;-52
2022/06/14 07:38:43;;;;;;;9.02;6.88;;;28.00;1.00;;;;;;5080703;28;20040;-47
2022/06/14 07:41:20;;;;;;;9.52;7.18;;;27.80;1.00;;;;;;5090084;28;20462;-51
2022/06/14 07:43:56;;;;;;;9.68;7.65;;;27.70;1.00;;;;;;5093379;28;20032;-47
2022/06/14 07:46:43;;;;;;;10.65;7.15;;;27.70;1.00;;;;;;5081125;28;20822;-50
2022/06/14 07:49:14;;;;;;;8.77;7.88;;;27.70;1.00;;;;;;5086817;28;20038;-50
2022/06/14 07:51:53;;;;;;;8.02;7.25;;;27.80;1.00;;;;;;5078239;28;20086;-47
2022/06/14 07:54:30;;;;;;;8.38;6.75;;;27.90;1.00;;;;;;5086080;28;20031;-48
2022/06/14 07:57:01;;;;;;;10.75;7.07;;;28.00;1.00;;;;;;5079626;28;20123;-51
2022/06/14 07:59:40;;;;;;;7.55;6.75;;;27.80;1.00;;;;;;5079539;28;20059;-47
2022/06/14 08:02:14;;;;;;;8.27;7.50;;;27.90;1.00;;;;;;5077603;28;20359;-47
2022/06/14 08:04:49;;;;;;;;;;;28.10;1.00;;;;;;5081992;28;20067;-47
2022/06/14 08:07:17;;;;;;;10.82;5.85;;;27.80;1.00;;;;;;5082256;28;19904;-49
2022/06/14 08:10:03;;;;;;;8.55;6.38;;;28.10;1.00;;;;;;5073565;28;20067;-43
2022/06/14 08:12:53;;;;;;;5.95;5.45;;;27.90;1.00;;;;;;5084981;28;20031;-48
2022/06/14 08:15:36;;;;;;;6.43;5.63;;;28.10;1.00;;;;;;5074527;28;20025;-47
2022/06/14 08:18:09;;;;;;;6.32;5.53;;;28.00;1.00;;;;;;5085242;28;20032;-50
2022/06/14 08:20:49;;;;;;;10.50;6.13;;;28.30;1.00;;;;;;5081586;28;20020;-52
2022/06/14 08:23:18;;;;;;;8.07;5.68;;;28.10;1.00;;;;;;5077440;28;20670;-52
2022/06/14 08:25:48;;;;;;;8.65;6.68;;;28.10;1.00;;;;;;5082256;28;20461;-49
2022/06/14 08:28:25;;;;;;;7.30;6.53;;;28.10;1.00;;;;;;5090398;28;20500;-47
2022/06/14 08:31:26;;;;;;;7.50;6.82;;;28.20;1.00;;;;;;5077538;28;20047;-46
2022/06/14 08:33:55;;;;;;;10.73;6.60;;;28.40;1.00;;;;;;5083870;28;20040;-47
2022/06/14 08:36:25;;;;;;;9.98;6.45;;;28.20;1.00;;;;;;5084643;28;20374;-49
2022/06/14 08:38:58;;;;;;;6.82;6.05;;;28.20;1.00;;;;;;5082411;28;20028;-46
2022/06/14 08:41:30;;;;;;;7.65;6.95;;;28.30;1.00;;;;;;5089841;28;20020;-47
2022/06/14 08:44:03;;;;;;;9.95;8.40;;;28.50;1.00;;;;;;5094552;28;20111;-44
2022/06/14 08:46:34;;;;;;;9.93;7.30;;;28.60;1.00;;;;;;5092851;28;20059;-45
2022/06/14 08:49:30;;;;;;;8.00;7.30;;;28.40;1.00;;;;;;5078759;28;20028;-45
2022/06/14 08:52:14;;;;;;;9.30;7.72;;;28.40;1.00;;;;;;5086681;28;20510;-43
2022/06/14 08:55:03;;;;;;;8.32;7.53;;;28.30;1.00;;;;;;5075858;28;20127;-49
2022/06/14 08:58:04;;;;;;;7.22;6.47;;;28.60;1.00;;;;;;5087383;28;20020;-44
2022/06/14 09:00:48;;;;;;;7.13;6.47;;;28.60;1.00;;;;;;5067253;28;20048;-46
2022/06/14 09:03:36;;;;;;;8.25;7.50;;;28.80;1.00;;;;;;5087639;28;20373;-45
2022/06/14 09:06:27;;;;;;;7.82;7.07;;;28.70;1.00;;;;;;5077163;28;20031;-47
2022/06/14 09:09:19;;;;;;;7.90;7.10;;;28.60;1.00;;;;;;5077106;28;20127;-47
2022/06/14 09:12:09;;;;;;;7.80;6.97;;;28.70;1.00;;;;;;5078873;28;20032;-51
2022/06/14 09:14:53;;;;;;;7.38;6.15;;;28.70;1.00;;;;;;5085279;28;20035;-47
2022/06/14 09:17:24;;;;;;;9.02;6.03;;;28.70;1.00;;;;;;5086886;28;20035;-47
2022/06/14 09:20:03;;;;;;;9.30;5.90;;;29.00;1.00;;;;;;5093927;28;20634;-52
2022/06/14 09:22:44;;;;;;;8.40;6.88;;;29.00;1.00;;;;;;5072096;28;20029;-50
2022/06/14 09:25:31;;;;;;;6.72;6.03;;;28.90;1.00;;;;;;5076323;28;20032;-50
2022/06/14 09:28:14;;;;;;;8.57;6.85;;;29.00;1.00;;;;;;5084797;28;20028;-45
2022/06/14 09:30:57;;;;;;;10.98;7.47;;;29.10;1.00;;;;;;5076123;28;20131;-47
2022/06/14 09:34:02;;;;;;;7.30;6.50;;;29.10;1.00;;;;;;5077826;28;20028;-51
2022/06/14 09:36:45;;;;;;;7.57;6.90;;;29.10;1.00;;;;;;5059316;28;20219;-48
2022/06/14 09:50:04;;;;;;;7.20;5.82;;;29.40;1.00;;;;;;5084793;28;20031;-46
2022/06/14 09:53:03;;;;;;;8.20;5.55;;;29.50;1.00;;;;;;5088464;28;20036;-44
2022/06/14 09:55:36;;;;;;;6.47;5.65;;;29.40;1.00;;;;;;5084653;28;20084;-46
2022/06/14 09:58:36;;;;;;;7.93;5.18;;;29.50;1.00;;;;;;5088747;28;20036;-44
2022/06/14 10:01:18;;;;;;;6.85;5.05;;;29.40;1.00;;;;;;5085070;28;20509;-45
2022/06/14 10:03:55;;;;;;;8.38;4.75;;;29.50;1.00;;;;;;5075704;28;20028;-44
2022/06/14 10:06:24;;;;;;;8.55;4.38;;;29.60;1.00;;;;;;5089531;28;20028;-44
2022/06/14 10:09:05;;;;;;;5.10;3.88;;;29.60;1.00;;;;;;5067428;28;20036;-46
2022/06/14 10:11:58;;;;;;;8.43;4.00;;;29.80;1.00;;;;;;5075337;28;20025;-45
2022/06/14 10:14:48;;;;;;;5.28;4.00;;;29.80;1.00;;;;;;5083796;28;20032;-46
2022/06/14 10:17:14;;;;;;;4.13;3.72;;;29.90;1.00;;;;;;5078994;28;20385;-48
2022/06/14 10:20:06;;;;;;;6.95;4.35;;;29.90;1.00;;;;;;5093237;28;20123;-47
2022/06/14 10:22:43;;;;;;;5.30;4.35;;;29.80;1.00;;;;;;4969167;28;20038;-48
2022/06/14 10:25:15;;;;;;;5.80;4.72;;;29.80;1.00;;;;;;5076356;28;20028;-46
2022/06/14 10:28:18;;;;;;;4.53;4.10;;;30.10;1.00;;;;;;5067524;28;20177;-47
2022/06/14 10:31:14;;;;;;;6.22;4.50;;;29.90;1.00;;;;;;5088604;28;20109;-48
2022/06/14 10:33:45;;;;;;;9.15;3.83;;;30.00;1.00;;;;;;5091132;28;20393;-48
2022/06/14 10:36:17;;;;;;;10.10;4.53;;;30.20;1.00;;;;;;5075422;28;20021;-46
2022/06/14 10:38:58;;;;;;;6.07;4.00;;;30.10;1.00;;;;;;5073619;28;20047;-49
2022/06/14 10:41:45;;;;;;;9.77;4.85;;;30.30;1.00;;;;;;5056576;28;20028;-47
2022/06/14 10:44:26;;;;;;;5.00;4.05;;;30.30;1.00;;;;;;5088280;28;20032;-49
2022/06/14 10:47:13;;;;;;;6.60;4.03;;;30.50;1.00;;;;;;5077595;28;20031;-45
2022/06/14 10:50:40;;;;;;;10.68;4.50;;;30.40;1.00;;;;;;5090745;28;20055;-45
2022/06/14 10:53:34;;;;;;;7.43;3.92;;;30.50;1.00;;;;;;4989187;28;20050;-46
2022/06/14 10:56:15;;;;;;;6.22;4.03;;;30.80;1.00;;;;;;4978995;28;20034;-45
2022/06/14 10:59:06;;;;;;;6.40;4.38;;;30.70;1.00;;;;;;5069129;28;20041;-49
2022/06/14 11:02:09;;;;;;;7.30;5.03;;;31.00;1.00;;;;;;5045459;28;20037;-47
2022/06/14 11:04:43;;;;;;;7.80;4.35;;;30.90;1.00;;;;;;5088076;28;20047;-45
2022/06/14 11:07:30;;;;;;;4.28;3.72;;;31.10;1.00;;;;;;5073303;28;20040;-48
2022/06/14 11:10:19;;;;;;;4.50;4.20;;;31.10;1.00;;;;;;5093425;28;20055;-45
2022/06/14 11:12:51;;;;;;;5.13;4.13;;;31.40;1.00;;;;;;5073879;28;20433;-44
2022/06/14 11:15:39;;;;;;;6.03;4.25;;;31.50;1.00;;;;;;5073672;28;20570;-47
2022/06/14 11:18:40;;;;;;;9.13;5.15;;;31.40;1.00;;;;;;5072654;28;20051;-46
2022/06/14 11:21:26;;;;;;;6.82;4.35;;;31.90;1.00;;;;;;5037102;28;20032;-47
2022/06/14 11:24:16;;;;;;;4.63;3.63;;;33.30;1.00;;;;;;5091168;28;20025;-44
2022/06/14 11:27:07;;;;;;;8.25;4.72;;;33.60;1.00;;;;;;5073332;28;20032;-44
2022/06/14 11:30:06;;;;;;;4.22;3.92;;;33.80;1.00;;;;;;5086824;28;20028;-50
2022/06/14 11:32:57;;;;;;;5.32;4.80;;;34.70;1.00;;;;;;5076905;28;20099;-49
2022/06/14 11:35:28;;;;;;;4.85;4.35;;;35.40;1.00;;;;;;5083726;28;20061;-47
2022/06/14 11:38:26;;;;;;;5.65;4.35;;;35.80;1.00;;;;;;5060014;28;20460;-47
2022/06/14 11:41:02;;;;;;;6.45;4.55;;;34.90;1.00;;;;;;5091708;28;20024;-46
2022/06/14 11:43:50;;;;;;;4.25;3.75;;;34.70;1.00;;;;;;5077033;28;20039;-46
2022/06/14 11:46:30;;;;;;;7.18;4.35;;;35.10;1.00;;;;;;5075911;28;20028;-51
2022/06/14 11:49:01;;;;;;;4.10;3.70;;;35.50;1.00;;;;;;5077552;28;20129;-45
2022/06/14 11:51:52;;;;;;;4.88;4.32;;;35.40;1.00;;;;;;5084051;28;20443;-50
2022/06/14 11:54:28;;;;;;;5.40;4.20;;;35.10;1.00;;;;;;5076563;28;20082;-51
2022/06/14 11:57:15;;;;;;;5.72;4.22;;;35.30;1.00;;;;;;5075554;28;20111;-51
2022/06/14 12:00:01;;;;;;;6.22;4.72;;;35.30;1.00;;;;;;5077958;28;20040;-48
2022/06/14 12:02:55;;;;;;;4.68;4.28;;;35.40;1.00;;;;;;5074428;28;20052;-48
2022/06/14 12:05:29;;;;;;;9.10;5.38;;;35.90;1.00;;;;;;5078939;28;20381;-51
2022/06/14 12:08:29;;;;;;;5.50;5.07;;;36.70;1.00;;;;;;5077791;28;20444;-50
2022/06/14 12:11:21;;;;;;;6.20;5.70;;;36.90;1.00;;;;;;5083332;28;20031;-52
2022/06/14 12:13:52;;;;;;;5.50;5.13;;;36.70;1.00;;;;;;5090913;28;20066;-48
2022/06/14 12:16:44;;;;;;;6.05;5.45;;;36.90;1.00;;;;;;5072214;28;20039;-49
2022/06/14 12:19:13;;;;;;;6.18;5.10;;;36.90;1.00;;;;;;5077594;28;20494;-48
2022/06/14 12:21:57;;;;;;;4.88;4.43;;;36.70;1.00;;;;;;5081532;28;20398;-45
2022/06/14 12:26:34;;;;;;;5.10;4.60;;;36.30;1.00;;;;;;5081454;28;20108;-45
2022/06/14 12:27:18;;;;;;;6.20;5.07;;;36.20;1.00;;;;;;5075872;28;20033;-47
2022/06/14 12:29:47;;;;;;;4.53;4.13;;;36.20;1.00;;;;;;5079638;28;20078;-47
2022/06/14 12:32:15;;;;;;;5.25;4.85;;;36.00;1.00;;;;;;5083483;28;20501;-46
2022/06/14 12:34:55;;;;;;;6.03;4.80;;;36.50;1.00;;;;;;5092705;28;20031;-45
2022/06/14 12:37:34;;;;;;;5.90;5.30;;;37.00;1.00;;;;;;5090965;28;20028;-46
2022/06/14 12:40:16;;;;;;;5.93;5.30;;;36.90;1.00;;;;;;5073579;28;20036;-45
2022/06/14 12:42:59;;;;;;;5.30;4.80;;;38.20;1.00;;;;;;5090231;28;20469;-46
2022/06/14 12:45:39;;;;;;;5.70;5.20;;;40.20;1.00;;;;;;5080073;28;20028;-47
2022/06/14 12:48:27;;;;;;;5.60;5.05;;;40.10;1.00;;;;;;5078940;28;20090;-44
2022/06/14 12:51:18;;;;;;;5.28;4.88;;;41.00;1.00;;;;;;5078308;28;20074;-52
2022/06/14 12:53:58;;;;;;;6.15;5.32;;;41.30;1.00;;;;;;5080348;28;20077;-46
2022/06/14 12:56:42;;;;;;;6.38;5.03;;;42.60;1.00;;;;;;5075847;28;20034;-47
2022/06/14 12:59:32;;;;;;;5.30;5.00;;;42.30;1.00;;;;;;5076808;28;20056;-45
2022/06/14 13:02:03;;;;;;;6.82;5.60;;;41.40;1.00;;;;;;5077896;28;20032;-44
2022/06/14 13:05:10;;;;;;;7.47;5.22;;;40.50;1.00;;;;;;5080533;28;20016;-46
2022/06/14 13:07:44;;;;;;;6.88;5.25;;;39.80;1.00;;;;;;5054664;28;20046;-47
2022/06/14 13:10:28;;;;;;;6.13;5.03;;;38.50;1.00;;;;;;5074574;28;20032;-47
2022/06/14 13:12:57;;;;;;;7.30;5.18;;;38.20;1.00;;;;;;5077594;28;20036;-47
2022/06/14 13:15:38;;;;;;;5.53;5.00;;;38.70;1.00;;;;;;5084774;28;20482;-51
2022/06/14 13:18:32;;;;;;;5.53;4.93;;;39.80;1.00;;;;;;5091476;28;20024;-47
2022/06/14 13:21:32;;;;;;;6.03;5.43;;;39.20;1.00;;;;;;5091331;28;20032;-45
2022/06/14 13:24:23;;;;;;;6.65;4.65;;;38.40;1.00;;;;;;5075611;28;20041;-45
2022/06/14 13:27:19;;;;;;;5.32;4.90;;;38.20;1.00;;;;;;5082330;28;20032;-49
2022/06/14 13:29:53;;;;;;;5.97;5.57;;;38.00;1.00;;;;;;5079523;28;20446;-47
2022/06/14 13:32:30;;;;;;;5.22;4.93;;;37.80;1.00;;;;;;5077606;28;20033;-48
2022/06/14 13:35:23;;;;;;;6.13;5.20;;;37.70;1.00;;;;;;5082381;28;20028;-50
2022/06/14 13:38:10;;;;;;;4.95;4.60;;;37.70;1.00;;;;;;5088240;28;20020;-47
2022/06/14 13:40:47;;;;;;;5.45;5.05;;;37.80;1.00;;;;;;5077880;28;20359;-47
2022/06/14 13:43:32;;;;;;;5.88;5.55;;;38.10;1.00;;;;;;5078773;28;20163;-45
2022/06/14 13:46:06;;;;;;;8.55;5.30;;;38.20;1.00;;;;;;5078245;28;20037;-48
2022/06/14 13:48:32;;;;;;;4.80;4.35;;;38.80;1.00;;;;;;5078920;28;20052;-46
2022/06/14 13:51:18;;;;;;;4.75;4.43;;;39.30;1.00;;;;;;5080545;28;20247;-48
2022/06/14 13:54:03;;;;;;;7.70;5.38;;;39.20;1.00;;;;;;5071056;28;20028;-45
2022/06/14 13:56:47;;;;;;;6.53;5.22;;;39.60;1.00;;;;;;5076892;28;20024;-50
2022/06/14 13:59:16;;;;;;;7.68;5.25;;;40.20;1.00;;;;;;5089596;28;20040;-48
2022/06/14 14:01:50;;;;;;;5.63;4.53;;;40.60;1.00;;;;;;5077327;28;20092;-49
2022/06/14 14:04:25;;;;;;;5.45;4.80;;;41.20;1.00;;;;;;5083499;28;20062;-48
2022/06/14 14:07:40;;;;;;;5.50;4.97;;;40.80;1.00;;;;;;5077823;28;20032;-46
2022/06/14 14:10:45;;;;;;;4.93;4.57;;;40.50;1.00;;;;;;5060638;28;20359;-48
2022/06/14 14:13:29;;;;;;;5.90;4.88;;;40.50;1.00;;;;;;5079610;28;20055;-49
2022/06/14 14:16:13;;;;;;;5.50;4.80;;;40.60;1.00;;;;;;5085144;28;20017;-49
2022/06/14 14:19:08;;;;;;;7.70;4.60;;;40.60;1.00;;;;;;5076453;28;20128;-48
2022/06/14 14:21:38;;;;;;;5.70;5.00;;;40.30;1.00;;;;;;5080028;28;20027;-46
2022/06/14 14:24:23;;;;;;;5.45;4.97;;;39.60;1.00;;;;;;5086980;28;20093;-52
2022/06/14 14:26:58;;;;;;;8.25;4.88;;;38.90;1.00;;;;;;5060534;28;20393;-45
2022/06/14 14:29:40;;;;;;;5.72;5.15;;;38.50;1.00;;;;;;5083480;28;20111;-46
2022/06/14 14:32:27;;;;;;;5.45;4.95;;;38.70;1.00;;;;;;5093132;28;20024;-50
2022/06/14 14:35:16;;;;;;;5.70;4.93;;;38.90;1.00;;;;;;5068973;28;20112;-46
2022/06/14 14:37:51;;;;;;;5.45;5.10;;;38.90;1.00;;;;;;5083373;28;20082;-52
2022/06/14 14:40:33;;;;;;;5.75;5.20;;;39.50;1.00;;;;;;5080219;28;20041;-50
2022/06/14 14:43:01;;;;;;;5.68;5.28;;;39.70;1.00;;;;;;5094383;28;20028;-50
2022/06/14 14:45:33;;;;;;;5.97;5.57;;;40.30;1.00;;;;;;5079864;28;20067;-51
2022/06/14 14:48:22;;;;;;;5.63;5.13;;;40.30;1.00;;;;;;5078394;28;20063;-45
2022/06/14 14:51:28;;;;;;;5.38;5.10;;;40.90;1.00;;;;;;5074537;28;20040;-52
2022/06/14 14:53:59;;;;;;;9.00;5.20;;;41.20;1.00;;;;;;5085694;28;20448;-45
2022/06/14 14:56:31;;;;;;;6.32;5.55;;;41.40;1.00;;;;;;5073888;28;20371;-47
2022/06/14 14:59:31;;;;;;;5.65;5.15;;;41.30;1.00;;;;;;5078346;28;20051;-49